Time;durP1;ratioP1;P1;durP2;ratioP2;P2;SDS_P1;SDS_P2;PMS_P1;PMS_P2;Temp;Humidity;BMP_temperature;BMP_pressure;BME280_temperature;BME280_humidity;BME280_pressure;Samples;Min_cycle;Max_cycle;Signal;HPM_P1;HPM_P2
2022/05/06 00:02:14;;;;;;;7.47;5.00;;;;;;;;;;5000698;28;20614;-18
2022/05/06 00:04:43;;;;;;;8.15;5.05;;;;;;;;;;4994603;28;20323;-18
2022/05/06 00:07:12;;;;;;;8.00;5.22;;;;;;;;;;4993195;28;20326;-18
2022/05/06 00:09:40;;;;;;;9.30;5.05;;;;;;;;;;4992346;28;20717;-18
2022/05/06 00:12:08;;;;;;;6.85;5.03;;;;;;;;;;5000424;28;20239;-18
2022/05/06 00:14:35;;;;;;;10.60;5.50;;;;;;;;;;4997764;28;20434;-18
2022/05/06 00:17:03;;;;;;;8.10;5.40;;;;;;;;;;4999721;28;20760;-18
2022/05/06 00:19:30;;;;;;;9.02;5.35;;;;;;;;;;4999719;28;20240;-18
2022/05/06 00:21:57;;;;;;;9.02;5.38;;;;;;;;;;5002327;28;20805;-18
2022/05/06 00:24:28;;;;;;;10.00;5.80;;;;;;;;;;4992411;28;20384;-18
2022/05/06 00:26:56;;;;;;;17.48;5.80;;;;;;;;;;4997469;28;20690;-18
2022/05/06 00:29:24;;;;;;;7.28;5.45;;;;;;;;;;4999748;28;20235;-18
2022/05/06 00:31:51;;;;;;;6.35;5.60;;;;;;;;;;4995866;28;20232;-18
2022/05/06 00:34:18;;;;;;;7.63;5.50;;;;;;;;;;5000718;28;21040;-19
2022/05/06 00:36:46;;;;;;;7.07;5.45;;;;;;;;;;5009596;28;20241;-18
2022/05/06 00:39:13;;;;;;;9.25;5.82;;;;;;;;;;5008534;28;20246;-18
2022/05/06 00:41:41;;;;;;;10.82;5.93;;;;;;;;;;5007057;28;21063;-19
2022/05/06 00:44:09;;;;;;;10.40;5.63;;;;;;;;;;5006922;28;20239;-19
2022/05/06 00:46:37;;;;;;;12.50;5.85;;;;;;;;;;5007574;28;20241;-19
2022/05/06 00:49:04;;;;;;;18.95;6.05;;;;;;;;;;5009782;28;20675;-19
2022/05/06 00:51:31;;;;;;;14.85;6.38;;;;;;;;;;5004098;28;20246;-19
2022/05/06 00:53:59;;;;;;;16.77;6.13;;;;;;;;;;5009272;28;20695;-18
2022/05/06 00:56:26;;;;;;;13.25;5.72;;;;;;;;;;5006404;28;20732;-19
2022/05/06 00:58:55;;;;;;;24.50;5.93;;;;;;;;;;5010338;28;20233;-19
2022/05/06 01:01:22;;;;;;;12.25;6.30;;;;;;;;;;4999149;28;20801;-19
2022/05/06 01:03:50;;;;;;;7.70;5.97;;;;;;;;;;5002071;28;20241;-18
2022/05/06 01:06:17;;;;;;;10.98;5.65;;;;;;;;;;5006244;28;20242;-18
2022/05/06 01:08:44;;;;;;;9.07;6.15;;;;;;;;;;4997708;28;20258;-19
2022/05/06 01:11:12;;;;;;;11.05;6.20;;;;;;;;;;5001576;28;20223;-19
2022/05/06 01:13:40;;;;;;;10.70;5.60;;;;;;;;;;4998268;28;20240;-19
2022/05/06 01:16:09;;;;;;;9.63;5.70;;;;;;;;;;4998053;28;20624;-19
2022/05/06 01:18:36;;;;;;;10.18;5.72;;;;;;;;;;5005781;28;20762;-19
2022/05/06 01:21:04;;;;;;;9.85;6.18;;;;;;;;;;5004416;28;20244;-19
2022/05/06 01:23:33;;;;;;;10.18;6.38;;;;;;;;;;4998906;28;20240;-19
2022/05/06 01:26:00;;;;;;;10.38;6.20;;;;;;;;;;4998218;28;20267;-18
2022/05/06 01:28:27;;;;;;;9.65;5.90;;;;;;;;;;5002768;28;20236;-19
2022/05/06 01:31:00;;;;;;;8.23;5.68;;;;;;;;;;4996653;28;20244;-19
2022/05/06 01:33:28;;;;;;;8.27;6.43;;;;;;;;;;4999479;28;20245;-19
2022/05/06 01:35:56;;;;;;;7.30;5.30;;;;;;;;;;4998251;28;20240;-18
2022/05/06 01:38:25;;;;;;;8.43;5.50;;;;;;;;;;5000198;28;20720;-18
2022/05/06 01:40:55;;;;;;;7.78;5.80;;;;;;;;;;5005429;28;20248;-18
2022/05/06 01:43:23;;;;;;;8.20;5.82;;;;;;;;;;5004005;28;20235;-18
2022/05/06 01:45:51;;;;;;;10.13;6.25;;;;;;;;;;5002569;28;20220;-18
2022/05/06 01:48:19;;;;;;;7.13;6.28;;;;;;;;;;5007530;28;20240;-19
2022/05/06 01:50:46;;;;;;;9.07;5.80;;;;;;;;;;5001741;28;20236;-19
2022/05/06 01:53:16;;;;;;;7.70;6.18;;;;;;;;;;5005190;28;20243;-19
2022/05/06 01:55:44;;;;;;;9.57;5.82;;;;;;;;;;5009066;28;20236;-18
2022/05/06 01:58:12;;;;;;;10.05;6.55;;;;;;;;;;5004190;28;20227;-18
2022/05/06 02:00:40;;;;;;;7.63;6.32;;;;;;;;;;5002144;28;20236;-19
2022/05/06 02:05:16;;;;;;;7.43;6.35;;;;;;;;;;5001622;28;20231;-19
2022/05/06 02:05:53;;;;;;;8.27;6.43;;;;;;;;;;5006124;28;20231;-19
2022/05/06 02:08:21;;;;;;;11.38;6.55;;;;;;;;;;5001398;28;20240;-18
2022/05/06 02:10:48;;;;;;;10.50;6.50;;;;;;;;;;5004058;28;20235;-19
2022/05/06 02:13:18;;;;;;;16.73;5.78;;;;;;;;;;5003705;28;20224;-19
2022/05/06 02:15:45;;;;;;;8.93;6.10;;;;;;;;;;5002683;28;20738;-19
2022/05/06 02:18:12;;;;;;;8.70;6.22;;;;;;;;;;5004364;28;21045;-19
2022/05/06 02:20:40;;;;;;;7.15;5.97;;;;;;;;;;5003886;28;20329;-19
2022/05/06 02:23:20;;;;;;;8.27;5.80;;;;;;;;;;5010861;28;20293;-17
2022/05/06 02:25:47;;;;;;;8.10;5.90;;;;;;;;;;5011966;28;20234;-18
2022/05/06 02:28:15;;;;;;;9.65;6.22;;;;;;;;;;5008523;28;20242;-18
2022/05/06 02:33:30;;;;;;;7.35;5.65;;;;;;;;;;5010855;28;20695;-18
2022/05/06 02:35:58;;;;;;;8.20;5.47;;;;;;;;;;5009925;28;20239;-17
2022/05/06 02:38:26;;;;;;;7.97;5.63;;;;;;;;;;5008592;28;20711;-18
2022/05/06 02:40:53;;;;;;;10.05;6.43;;;;;;;;;;5009719;28;20262;-17
2022/05/06 02:43:20;;;;;;;7.95;5.70;;;;;;;;;;5009563;28;20713;-17
2022/05/06 02:45:49;;;;;;;6.82;5.70;;;;;;;;;;5009169;28;20263;-17
2022/05/06 02:48:18;;;;;;;8.25;6.25;;;;;;;;;;5006537;28;20710;-17
2022/05/06 02:50:47;;;;;;;6.03;5.43;;;;;;;;;;5005478;28;20238;-17
2022/05/06 02:53:14;;;;;;;6.97;5.60;;;;;;;;;;5011176;28;20528;-17
2022/05/06 02:55:41;;;;;;;7.68;6.43;;;;;;;;;;5011473;28;20231;-17
2022/05/06 02:58:09;;;;;;;7.43;6.00;;;;;;;;;;5010893;28;20230;-17
2022/05/06 03:00:36;;;;;;;7.07;5.97;;;;;;;;;;5010682;28;20232;-18
2022/05/06 03:03:05;;;;;;;6.65;5.75;;;;;;;;;;5011136;28;20351;-17
2022/05/06 03:05:33;;;;;;;6.85;6.15;;;;;;;;;;5010565;28;20679;-17
2022/05/06 03:08:00;;;;;;;7.57;5.53;;;;;;;;;;5011066;28;20236;-18
2022/05/06 03:10:27;;;;;;;6.60;5.78;;;;;;;;;;5010853;28;20238;-18
2022/05/06 03:12:58;;;;;;;7.32;6.13;;;;;;;;;;5010450;28;20227;-17
2022/05/06 03:15:25;;;;;;;7.00;5.97;;;;;;;;;;5010866;28;20239;-17
2022/05/06 03:17:53;;;;;;;10.13;6.40;;;;;;;;;;5011081;28;20247;-17
2022/05/06 03:20:22;;;;;;;7.43;5.80;;;;;;;;;;5010754;28;20295;-17
2022/05/06 03:22:50;;;;;;;6.43;5.82;;;;;;;;;;5004946;28;20243;-17
2022/05/06 03:25:17;;;;;;;6.50;5.55;;;;;;;;;;5002688;28;20262;-18
2022/05/06 03:28:07;;;;;;;6.40;5.35;;;;;;;;;;5004074;28;20242;-18
2022/05/06 03:30:39;;;;;;;7.00;5.88;;;;;;;;;;5010747;28;20239;-18
2022/05/06 03:33:08;;;;;;;7.25;4.97;;;;;;;;;;5007355;28;20276;-17
2022/05/06 03:35:37;;;;;;;6.60;5.50;;;;;;;;;;5006951;28;20243;-18
2022/05/06 03:38:05;;;;;;;7.05;5.25;;;;;;;;;;5001317;28;20239;-17
2022/05/06 03:40:32;;;;;;;7.28;4.88;;;;;;;;;;5002337;28;20598;-17
2022/05/06 03:42:59;;;;;;;7.95;5.47;;;;;;;;;;5001938;28;20239;-17
2022/05/06 03:45:27;;;;;;;6.47;5.30;;;;;;;;;;5002091;28;20236;-18
2022/05/06 03:47:54;;;;;;;6.38;4.68;;;;;;;;;;5002621;28;20246;-17
2022/05/06 03:53:08;;;;;;;4.90;4.40;;;;;;;;;;4999270;28;20219;-17
2022/05/06 03:55:35;;;;;;;5.40;4.50;;;;;;;;;;5002305;28;20366;-17
2022/05/06 03:58:03;;;;;;;5.57;4.70;;;;;;;;;;5004269;28;20243;-18
2022/05/06 04:00:30;;;;;;;5.68;4.68;;;;;;;;;;5002566;28;20578;-17
2022/05/06 04:02:58;;;;;;;6.45;4.78;;;;;;;;;;5003216;28;20239;-17
2022/05/06 04:05:33;;;;;;;5.47;4.15;;;;;;;;;;4999015;28;20255;-18
2022/05/06 04:08:01;;;;;;;6.53;4.80;;;;;;;;;;5009073;28;20309;-18
2022/05/06 04:10:30;;;;;;;4.50;4.10;;;;;;;;;;5005008;28;20733;-17
2022/05/06 04:12:57;;;;;;;5.53;4.75;;;;;;;;;;5002109;28;20220;-17
2022/05/06 04:15:25;;;;;;;7.40;5.50;;;;;;;;;;4998668;28;20239;-18
2022/05/06 04:17:52;;;;;;;5.72;4.50;;;;;;;;;;5009819;28;20239;-17
2022/05/06 04:23:32;;;;;;;6.22;5.40;;;;;;;;;;4988600;28;20236;-17
2022/05/06 04:26:01;;;;;;;6.03;5.20;;;;;;;;;;4998837;28;20232;-17
2022/05/06 04:28:28;;;;;;;6.03;5.20;;;;;;;;;;5002088;28;20799;-17
2022/05/06 04:30:56;;;;;;;6.20;4.90;;;;;;;;;;5003583;28;20227;-18
2022/05/06 04:33:24;;;;;;;5.50;4.90;;;;;;;;;;5001086;28;20234;-18
2022/05/06 04:35:53;;;;;;;5.63;4.70;;;;;;;;;;4998614;28;20236;-17
2022/05/06 04:38:20;;;;;;;9.20;5.55;;;;;;;;;;5001046;28;20246;-18
2022/05/06 04:40:48;;;;;;;5.80;4.93;;;;;;;;;;5001501;28;20231;-17
2022/05/06 04:43:17;;;;;;;8.13;5.28;;;;;;;;;;5001834;28;20290;-18
2022/05/06 04:45:45;;;;;;;6.97;5.20;;;;;;;;;;5006428;28;20283;-17
2022/05/06 04:48:12;;;;;;;5.93;4.85;;;;;;;;;;5005102;28;20243;-17
2022/05/06 04:50:40;;;;;;;5.72;4.93;;;;;;;;;;5001820;28;20231;-18
2022/05/06 04:53:08;;;;;;;5.50;4.93;;;;;;;;;;5001075;28;20232;-18
2022/05/06 04:55:35;;;;;;;4.68;4.20;;;;;;;;;;4999262;28;20243;-18
2022/05/06 04:58:03;;;;;;;5.35;4.85;;;;;;;;;;4999804;28;20240;-18
2022/05/06 05:00:31;;;;;;;5.28;4.78;;;;;;;;;;4999444;28;20227;-18
2022/05/06 05:02:59;;;;;;;5.93;4.85;;;;;;;;;;5002676;28;20246;-18
2022/05/06 05:05:26;;;;;;;6.50;4.60;;;;;;;;;;4998831;28;20234;-18
2022/05/06 05:07:54;;;;;;;6.85;4.95;;;;;;;;;;4996037;28;21136;-17
2022/05/06 05:10:21;;;;;;;5.60;5.00;;;;;;;;;;5001919;28;20691;-17
2022/05/06 05:12:49;;;;;;;4.95;4.47;;;;;;;;;;4999381;28;20254;-17
2022/05/06 05:15:16;;;;;;;6.30;4.63;;;;;;;;;;5004213;28;20261;-17
2022/05/06 05:17:45;;;;;;;6.07;4.78;;;;;;;;;;5008857;28;20243;-17
2022/05/06 05:20:12;;;;;;;5.00;4.50;;;;;;;;;;5004536;28;20231;-17
2022/05/06 05:22:40;;;;;;;6.78;4.32;;;;;;;;;;5001188;28;20816;-17
2022/05/06 05:25:08;;;;;;;6.03;4.60;;;;;;;;;;5004332;28;20231;-17
2022/05/06 05:27:37;;;;;;;9.27;4.32;;;;;;;;;;5003873;28;20229;-18
2022/05/06 05:30:05;;;;;;;6.30;4.70;;;;;;;;;;5002539;28;20714;-17
2022/05/06 05:32:33;;;;;;;5.22;4.28;;;;;;;;;;5006539;28;20235;-18
2022/05/06 05:35:02;;;;;;;6.70;4.05;;;;;;;;;;5003820;28;20722;-17
2022/05/06 05:37:29;;;;;;;5.40;4.28;;;;;;;;;;5002535;28;20243;-17
2022/05/06 05:39:56;;;;;;;6.05;4.60;;;;;;;;;;5002810;28;20239;-17
2022/05/06 05:42:27;;;;;;;5.90;3.97;;;;;;;;;;5001938;28;20247;-18
2022/05/06 05:50:27;;;;;;;7.03;4.47;;;;;;;;;;5005035;28;20240;-18
2022/05/06 05:52:55;;;;;;;4.97;4.47;;;;;;;;;;5007239;28;20283;-18
2022/05/06 05:55:23;;;;;;;4.78;4.18;;;;;;;;;;5011375;28;20235;-17
2022/05/06 05:57:50;;;;;;;5.85;4.10;;;;;;;;;;5010494;28;20286;-17
2022/05/06 06:00:17;;;;;;;4.65;4.00;;;;;;;;;;5011322;28;20224;-18
2022/05/06 06:02:45;;;;;;;5.53;4.00;;;;;;;;;;5010512;28;20246;-17
2022/05/06 06:05:12;;;;;;;7.28;3.95;;;;;;;;;;5010570;28;20693;-18
2022/05/06 06:07:41;;;;;;;6.07;4.07;;;;;;;;;;5010671;28;20236;-17
2022/05/06 06:10:09;;;;;;;5.88;3.97;;;;;;;;;;5011040;28;20235;-17
2022/05/06 06:12:36;;;;;;;7.05;4.38;;;;;;;;;;5010611;28;20231;-17
2022/05/06 06:15:04;;;;;;;4.95;4.45;;;;;;;;;;5010490;28;20234;-17
2022/05/06 06:17:32;;;;;;;8.82;5.53;;;;;;;;;;5009302;28;20231;-17
2022/05/06 06:20:01;;;;;;;7.28;5.75;;;;;;;;;;5009713;28;20231;-17
2022/05/06 06:22:29;;;;;;;8.57;5.60;;;;;;;;;;5010570;28;20334;-18
2022/05/06 06:24:58;;;;;;;8.30;5.40;;;;;;;;;;5007070;28;20238;-17
2022/05/06 06:27:27;;;;;;;4.93;4.35;;;;;;;;;;5007481;28;20584;-17
2022/05/06 06:29:55;;;;;;;5.57;5.07;;;;;;;;;;5008021;28;20246;-18
2022/05/06 06:32:23;;;;;;;5.95;4.63;;;;;;;;;;5010990;28;20239;-17
2022/05/06 06:34:51;;;;;;;5.70;4.35;;;;;;;;;;5011162;28;20232;-17
2022/05/06 06:37:19;;;;;;;4.32;3.92;;;;;;;;;;5011181;28;21024;-18
2022/05/06 06:39:46;;;;;;;5.28;4.45;;;;;;;;;;5009294;28;20232;-18
2022/05/06 06:42:15;;;;;;;4.57;4.00;;;;;;;;;;5008576;28;20235;-17
2022/05/06 06:44:42;;;;;;;5.05;3.85;;;;;;;;;;5004127;28;20237;-18
2022/05/06 06:47:10;;;;;;;4.82;4.35;;;;;;;;;;5007271;28;20228;-17
2022/05/06 06:49:37;;;;;;;9.05;4.40;;;;;;;;;;5000982;28;20235;-17
2022/05/06 06:52:05;;;;;;;4.78;4.22;;;;;;;;;;5005365;28;20237;-18
2022/05/06 06:54:32;;;;;;;7.55;4.50;;;;;;;;;;5001535;28;20231;-18
2022/05/06 06:57:00;;;;;;;4.63;3.80;;;;;;;;;;5001554;28;20289;-17
2022/05/06 06:59:28;;;;;;;5.30;4.38;;;;;;;;;;5001337;28;20697;-17
2022/05/06 07:01:56;;;;;;;4.90;4.22;;;;;;;;;;5004311;28;20288;-17
2022/05/06 07:04:23;;;;;;;6.95;4.60;;;;;;;;;;5005374;28;20232;-17
2022/05/06 07:12:21;;;;;;;8.27;4.40;;;;;;;;;;5003567;28;21022;-17
2022/05/06 07:14:50;;;;;;;7.93;3.72;;;;;;;;;;5003661;28;20235;-17
2022/05/06 07:17:17;;;;;;;4.40;4.00;;;;;;;;;;5005212;28;21083;-17
2022/05/06 07:19:47;;;;;;;8.57;4.88;;;;;;;;;;5003076;28;20248;-18
2022/05/06 07:22:15;;;;;;;5.25;4.25;;;;;;;;;;5001924;28;20248;-18
2022/05/06 07:24:52;;;;;;;15.23;5.28;;;;;;;;;;5004952;28;20314;-17
2022/05/06 07:27:21;;;;;;;19.67;6.28;;;;;;;;;;5001841;28;20711;-17
2022/05/06 07:29:49;;;;;;;17.70;6.07;;;;;;;;;;5003284;28;20213;-17
2022/05/06 07:32:18;;;;;;;17.30;5.60;;;;;;;;;;5007762;28;20216;-17
2022/05/06 07:34:45;;;;;;;14.65;4.68;;;;;;;;;;5009390;28;20223;-17
2022/05/06 07:37:12;;;;;;;15.43;4.88;;;;;;;;;;5004542;28;20262;-18
2022/05/06 07:39:40;;;;;;;12.00;4.90;;;;;;;;;;5008357;28;20253;-18
2022/05/06 07:42:08;;;;;;;11.63;4.68;;;;;;;;;;5009342;28;20658;-16
2022/05/06 07:44:35;;;;;;;14.20;4.78;;;;;;;;;;5009251;28;20228;-16
2022/05/06 07:47:04;;;;;;;9.68;5.22;;;;;;;;;;5007464;28;21000;-16
2022/05/06 07:49:32;;;;;;;11.73;5.22;;;;;;;;;;5008632;28;20710;-17
2022/05/06 07:51:59;;;;;;;5.20;4.70;;;;;;;;;;5008744;28;20239;-17
2022/05/06 07:54:26;;;;;;;17.45;6.43;;;;;;;;;;5009646;28;21048;-16
2022/05/06 07:56:54;;;;;;;10.57;5.45;;;;;;;;;;5001853;28;20270;-17
2022/05/06 07:59:21;;;;;;;12.07;5.63;;;;;;;;;;5001111;28;20244;-16
2022/05/06 08:04:36;;;;;;;18.45;6.60;;;;;;;;;;5007521;28;20227;-17
2022/05/06 08:07:04;;;;;;;13.93;6.80;;;;;;;;;;5000080;28;20232;-16
2022/05/06 08:09:31;;;;;;;16.17;6.50;;;;;;;;;;5000503;28;20672;-17
2022/05/06 08:11:59;;;;;;;15.98;7.15;;;;;;;;;;5004883;28;20239;-17
2022/05/06 08:14:26;;;;;;;14.73;7.43;;;;;;;;;;5007536;28;20947;-17
2022/05/06 08:16:53;;;;;;;18.85;7.65;;;;;;;;;;5009463;28;21152;-17
2022/05/06 08:19:21;;;;;;;14.60;8.13;;;;;;;;;;5008236;28;20243;-16
2022/05/06 08:21:51;;;;;;;14.80;7.72;;;;;;;;;;5006064;28;20748;-17
2022/05/06 08:24:18;;;;;;;13.38;7.75;;;;;;;;;;5009427;28;20245;-17
2022/05/06 08:26:46;;;;;;;22.30;8.10;;;;;;;;;;5009866;28;20935;-16
2022/05/06 08:29:13;;;;;;;16.55;7.93;;;;;;;;;;5009338;28;20231;-17
2022/05/06 08:31:40;;;;;;;20.88;8.40;;;;;;;;;;5007641;28;20440;-17
2022/05/06 08:34:08;;;;;;;34.10;9.55;;;;;;;;;;5007651;28;21018;-17
2022/05/06 08:36:36;;;;;;;17.92;8.52;;;;;;;;;;5008343;28;20319;-17
2022/05/06 08:39:05;;;;;;;14.82;8.27;;;;;;;;;;5007706;28;20249;-16
2022/05/06 08:41:32;;;;;;;18.55;8.35;;;;;;;;;;5005115;28;20274;-16
2022/05/06 08:50:50;;;;;;;23.17;8.55;;;;;;;;;;5004151;28;20238;-16
2022/05/06 08:52:18;;;;;;;19.30;8.43;;;;;;;;;;5002726;28;20228;-16
2022/05/06 08:54:51;;;;;;;18.75;8.40;;;;;;;;;;5002466;28;20226;-16
2022/05/06 08:57:18;;;;;;;16.88;9.55;;;;;;;;;;5001487;28;20235;-16
2022/05/06 08:59:50;;;;;;;28.58;8.98;;;;;;;;;;5001695;28;20236;-16
2022/05/06 09:02:17;;;;;;;13.15;8.27;;;;;;;;;;5002436;28;20278;-16
2022/05/06 09:04:44;;;;;;;19.30;8.18;;;;;;;;;;5000461;28;20322;-16
2022/05/06 09:07:17;;;;;;;16.15;8.15;;;;;;;;;;4998488;28;21251;-16
2022/05/06 09:09:44;;;;;;;17.65;8.43;;;;;;;;;;5000835;28;20698;-16
2022/05/06 09:17:46;;;;;;;11.68;7.10;;;;;;;;;;5006471;28;20232;-17
2022/05/06 09:20:18;;;;;;;12.25;6.75;;;;;;;;;;5002443;28;20251;-17
2022/05/06 09:22:47;;;;;;;10.93;7.05;;;;;;;;;;5004477;28;20282;-16
2022/05/06 09:25:21;;;;;;;18.15;6.82;;;;;;;;;;4999963;28;20240;-16
2022/05/06 09:27:55;;;;;;;10.52;6.70;;;;;;;;;;5001864;28;20231;-16
2022/05/06 09:30:23;;;;;;;8.88;6.18;;;;;;;;;;5001128;28;20233;-17
2022/05/06 09:32:51;;;;;;;10.85;7.25;;;;;;;;;;5001120;28;20238;-16
2022/05/06 09:35:19;;;;;;;9.25;6.30;;;;;;;;;;5000878;28;20231;-16
2022/05/06 09:37:47;;;;;;;11.63;6.68;;;;;;;;;;5004742;28;20243;-16
2022/05/06 09:40:15;;;;;;;13.00;6.55;;;;;;;;;;5001964;28;20330;-17
2022/05/06 09:42:42;;;;;;;7.72;6.00;;;;;;;;;;4997775;28;20319;-17
2022/05/06 09:45:11;;;;;;;15.45;7.15;;;;;;;;;;4999472;28;20236;-17
2022/05/06 09:47:40;;;;;;;12.38;6.75;;;;;;;;;;5007272;28;21721;-16
2022/05/06 09:50:08;;;;;;;9.35;6.03;;;;;;;;;;5001665;28;20228;-16
2022/05/06 09:52:35;;;;;;;13.98;5.90;;;;;;;;;;4997261;28;20330;-16
2022/05/06 09:55:03;;;;;;;11.90;5.93;;;;;;;;;;4999538;28;20243;-16
2022/05/06 09:57:30;;;;;;;10.15;6.13;;;;;;;;;;5006902;28;20915;-16
2022/05/06 09:59:57;;;;;;;10.77;7.05;;;;;;;;;;5008637;28;20239;-16
2022/05/06 10:02:26;;;;;;;8.43;6.63;;;;;;;;;;5006504;28;20239;-16
2022/05/06 10:04:54;;;;;;;15.48;6.68;;;;;;;;;;5000088;28;20240;-17
2022/05/06 10:07:25;;;;;;;12.55;6.45;;;;;;;;;;5003398;28;20243;-18
2022/05/06 10:09:54;;;;;;;13.00;6.75;;;;;;;;;;4993763;28;20233;-18
2022/05/06 10:12:21;;;;;;;10.88;5.72;;;;;;;;;;5006317;28;20239;-19
2022/05/06 10:14:49;;;;;;;8.25;5.95;;;;;;;;;;5002631;28;20232;-19
2022/05/06 10:17:31;;;;;;;7.95;5.25;;;;;;;;;;5003924;28;21146;-19
2022/05/06 10:20:00;;;;;;;8.65;5.10;;;;;;;;;;5004355;28;20314;-18
2022/05/06 10:22:32;;;;;;;7.63;5.60;;;;;;;;;;5007203;28;20408;-19
2022/05/06 10:25:00;;;;;;;7.65;5.30;;;;;;;;;;5004402;28;20231;-18
2022/05/06 10:32:59;;;;;;;7.90;4.90;;;;;;;;;;4962925;28;20516;-18
2022/05/06 10:35:41;;;;;;;5.25;4.47;;;;;;;;;;5002678;28;20707;-18
2022/05/06 10:38:21;;;;;;;5.35;4.05;;;;;;;;;;5005613;28;20298;-18
2022/05/06 10:40:57;;;;;;;7.60;3.95;;;;;;;;;;5004364;28;20239;-18
2022/05/06 10:43:48;;;;;;;4.85;3.60;;;;;;;;;;5002799;28;20271;-20
2022/05/06 10:46:30;;;;;;;4.53;3.63;;;;;;;;;;4989035;28;20797;-18
2022/05/06 10:49:00;;;;;;;5.35;3.70;;;;;;;;;;5001102;28;20235;-16
2022/05/06 10:51:29;;;;;;;4.17;3.40;;;;;;;;;;5004120;28;21180;-19
2022/05/06 10:53:56;;;;;;;5.60;3.53;;;;;;;;;;5005721;28;20747;-15
2022/05/06 10:56:23;;;;;;;4.70;3.25;;;;;;;;;;5006368;28;20239;-19
2022/05/06 10:59:02;;;;;;;5.55;3.30;;;;;;;;;;5003310;28;21010;-19
2022/05/06 11:01:30;;;;;;;5.18;3.63;;;;;;;;;;5005531;28;20429;-19
2022/05/06 11:03:57;;;;;;;3.97;3.38;;;;;;;;;;5003524;28;20239;-18
2022/05/06 11:06:24;;;;;;;7.47;3.35;;;;;;;;;;5003573;28;20626;-19
2022/05/06 11:08:54;;;;;;;8.48;4.03;;;;;;;;;;5000205;28;20234;-19
2022/05/06 11:11:21;;;;;;;6.95;3.53;;;;;;;;;;5001814;28;20246;-16
2022/05/06 11:13:51;;;;;;;6.63;3.60;;;;;;;;;;5007238;28;20231;-16
2022/05/06 11:16:18;;;;;;;4.47;3.35;;;;;;;;;;5001347;28;20230;-19
2022/05/06 11:18:47;;;;;;;5.32;3.50;;;;;;;;;;4996036;28;20236;-19
2022/05/06 11:21:21;;;;;;;7.88;3.10;;;;;;;;;;4999746;28;20893;-19
2022/05/06 11:23:48;;;;;;;6.30;3.20;;;;;;;;;;5000542;28;20242;-19
2022/05/06 11:26:24;;;;;;;10.52;3.55;;;;;;;;;;5004527;28;21184;-19
2022/05/06 11:29:02;;;;;;;6.55;3.17;;;;;;;;;;5004223;28;20242;-18
2022/05/06 11:31:29;;;;;;;5.85;3.13;;;;;;;;;;5006837;28;20238;-19
2022/05/06 11:33:56;;;;;;;7.07;3.10;;;;;;;;;;5005599;28;20426;-18
2022/05/06 11:36:24;;;;;;;6.00;3.30;;;;;;;;;;5006428;28;20234;-17
2022/05/06 11:38:51;;;;;;;6.85;3.33;;;;;;;;;;5004891;28;20317;-19
2022/05/06 11:41:18;;;;;;;4.88;3.50;;;;;;;;;;4999352;28;20261;-19
2022/05/06 11:43:47;;;;;;;7.70;3.30;;;;;;;;;;5005409;28;20237;-19
2022/05/06 11:49:00;;;;;;;4.85;3.45;;;;;;;;;;4999040;28;20236;-16
2022/05/06 11:51:29;;;;;;;6.20;3.17;;;;;;;;;;5001856;28;20242;-16
2022/05/06 11:53:56;;;;;;;10.65;3.50;;;;;;;;;;5003338;28;20236;-16
2022/05/06 11:56:24;;;;;;;7.22;3.45;;;;;;;;;;5002118;28;20232;-16
2022/05/06 11:58:53;;;;;;;6.25;3.40;;;;;;;;;;5004554;28;20227;-17
2022/05/06 12:01:27;;;;;;;7.75;3.40;;;;;;;;;;5005204;28;20737;-16
2022/05/06 12:03:56;;;;;;;5.97;3.60;;;;;;;;;;5001203;28;20231;-16
2022/05/06 12:06:33;;;;;;;6.13;3.65;;;;;;;;;;5000591;28;20224;-16
2022/05/06 12:09:10;;;;;;;5.40;3.20;;;;;;;;;;5000783;28;20234;-16
2022/05/06 12:11:37;;;;;;;6.45;3.35;;;;;;;;;;5002590;28;20699;-16
2022/05/06 12:14:07;;;;;;;6.10;3.20;;;;;;;;;;5003719;28;20964;-17
2022/05/06 12:16:34;;;;;;;4.40;3.05;;;;;;;;;;5003800;28;20326;-16
2022/05/06 12:19:01;;;;;;;6.22;3.35;;;;;;;;;;5000064;28;20337;-17
2022/05/06 12:21:29;;;;;;;4.45;3.35;;;;;;;;;;5000186;28;20252;-17
2022/05/06 12:23:57;;;;;;;3.92;3.13;;;;;;;;;;5000694;28;20232;-17
2022/05/06 12:26:34;;;;;;;4.35;2.95;;;;;;;;;;4999083;28;20232;-17
2022/05/06 12:29:02;;;;;;;6.07;3.45;;;;;;;;;;4999667;28;20322;-17
2022/05/06 12:31:31;;;;;;;4.45;3.55;;;;;;;;;;5003755;28;20997;-17
2022/05/06 12:34:02;;;;;;;4.55;3.05;;;;;;;;;;4999778;28;20279;-17
2022/05/06 12:36:30;;;;;;;6.13;3.45;;;;;;;;;;5000013;28;20254;-17
2022/05/06 12:38:57;;;;;;;3.97;3.17;;;;;;;;;;4998986;28;20234;-17
2022/05/06 12:41:25;;;;;;;3.70;3.00;;;;;;;;;;5002962;28;20254;-17
2022/05/06 12:43:53;;;;;;;3.80;2.70;;;;;;;;;;5009087;28;20351;-17
2022/05/06 12:46:27;;;;;;;3.83;3.08;;;;;;;;;;5008971;28;20227;-17
2022/05/06 12:51:41;;;;;;;3.83;3.00;;;;;;;;;;5009376;28;20231;-16
2022/05/06 12:54:09;;;;;;;6.10;3.15;;;;;;;;;;5007017;28;20231;-16
2022/05/06 12:56:36;;;;;;;3.38;3.08;;;;;;;;;;5008779;28;20259;-17
2022/05/06 12:59:04;;;;;;;19.42;3.38;;;;;;;;;;5009427;28;20228;-17
2022/05/06 13:01:31;;;;;;;8.30;3.63;;;;;;;;;;5007818;28;20659;-17
2022/05/06 13:04:00;;;;;;;8.93;3.50;;;;;;;;;;5007613;28;20777;-17
2022/05/06 13:06:28;;;;;;;8.25;3.50;;;;;;;;;;5008944;28;20228;-18
2022/05/06 13:08:55;;;;;;;9.25;3.65;;;;;;;;;;5008111;28;20238;-18
2022/05/06 13:11:22;;;;;;;11.27;3.78;;;;;;;;;;5007997;28;21059;-18
2022/05/06 13:13:50;;;;;;;8.52;3.10;;;;;;;;;;5007746;28;20231;-18
2022/05/06 13:16:17;;;;;;;6.88;3.63;;;;;;;;;;5007254;28;20440;-18
2022/05/06 13:18:50;;;;;;;9.50;3.25;;;;;;;;;;5002642;28;20251;-18
2022/05/06 13:21:19;;;;;;;10.95;2.78;;;;;;;;;;5001582;28;20338;-18
2022/05/06 13:23:46;;;;;;;6.85;3.20;;;;;;;;;;5008377;28;21005;-18
2022/05/06 13:26:14;;;;;;;7.45;3.25;;;;;;;;;;5007262;28;20952;-18
2022/05/06 13:28:41;;;;;;;4.93;2.90;;;;;;;;;;5008701;28;20235;-18
2022/05/06 13:31:09;;;;;;;3.78;2.47;;;;;;;;;;5007999;28;20233;-18
2022/05/06 13:33:38;;;;;;;6.13;3.35;;;;;;;;;;5008526;28;20227;-18
2022/05/06 13:36:05;;;;;;;4.40;2.80;;;;;;;;;;5009489;28;20319;-18
2022/05/06 13:38:34;;;;;;;6.10;2.70;;;;;;;;;;5007570;28;20224;-18
2022/05/06 13:41:03;;;;;;;5.35;3.08;;;;;;;;;;5002362;28;21067;-18
2022/05/06 13:43:31;;;;;;;5.47;2.92;;;;;;;;;;5002724;28;20828;-18
2022/05/06 13:45:58;;;;;;;4.93;2.83;;;;;;;;;;5006141;28;20228;-18
2022/05/06 13:48:26;;;;;;;4.57;3.03;;;;;;;;;;5003720;28;20236;-18
2022/05/06 13:50:53;;;;;;;4.70;2.60;;;;;;;;;;5003457;28;21197;-18
2022/05/06 13:53:20;;;;;;;4.47;3.00;;;;;;;;;;5001111;28;20726;-18
2022/05/06 14:01:18;;;;;;;8.68;2.85;;;;;;;;;;5006102;28;20702;-18
2022/05/06 14:03:46;;;;;;;8.90;3.15;;;;;;;;;;5004064;28;20687;-18
2022/05/06 14:06:14;;;;;;;9.02;2.40;;;;;;;;;;5004741;28;20235;-18
2022/05/06 14:08:41;;;;;;;2.80;2.42;;;;;;;;;;5007262;28;20637;-18
2022/05/06 14:11:10;;;;;;;9.98;3.05;;;;;;;;;;5006861;28;20282;-18
2022/05/06 14:13:37;;;;;;;4.15;2.80;;;;;;;;;;5008830;28;20227;-18
2022/05/06 14:16:06;;;;;;;3.03;2.35;;;;;;;;;;5010312;28;21087;-18
2022/05/06 14:18:33;;;;;;;5.85;2.42;;;;;;;;;;5010305;28;20238;-18
2022/05/06 14:21:01;;;;;;;2.92;2.30;;;;;;;;;;5010269;28;20227;-18
2022/05/06 14:23:28;;;;;;;5.75;2.47;;;;;;;;;;5009744;28;20313;-18
2022/05/06 14:25:56;;;;;;;3.97;2.30;;;;;;;;;;5001008;28;20312;-18
2022/05/06 14:28:25;;;;;;;5.80;2.88;;;;;;;;;;5003877;28;20243;-18
2022/05/06 14:30:52;;;;;;;5.10;2.65;;;;;;;;;;5007350;28;20236;-18
2022/05/06 14:33:20;;;;;;;5.47;2.40;;;;;;;;;;5010374;28;21071;-18
2022/05/06 14:35:47;;;;;;;4.32;2.42;;;;;;;;;;5010504;28;20418;-18
2022/05/06 14:38:14;;;;;;;3.92;2.33;;;;;;;;;;5000239;28;20359;-18
2022/05/06 14:40:42;;;;;;;7.35;2.17;;;;;;;;;;5003401;28;20232;-18
2022/05/06 14:43:09;;;;;;;8.35;2.13;;;;;;;;;;5003288;28;20236;-18
2022/05/06 14:45:38;;;;;;;2.85;2.08;;;;;;;;;;5004360;28;20232;-18
2022/05/06 14:48:06;;;;;;;4.90;2.40;;;;;;;;;;5003007;28;20235;-18
2022/05/06 14:50:33;;;;;;;5.25;2.40;;;;;;;;;;4999376;28;20232;-18
2022/05/06 14:53:00;;;;;;;3.45;2.17;;;;;;;;;;5001404;28;20228;-18
2022/05/06 14:55:28;;;;;;;3.28;2.33;;;;;;;;;;5005741;28;20242;-18
2022/05/06 14:57:56;;;;;;;9.80;2.38;;;;;;;;;;5006981;28;20232;-18
2022/05/06 15:00:24;;;;;;;4.70;2.22;;;;;;;;;;5003086;28;20231;-18
2022/05/06 15:02:53;;;;;;;2.13;1.92;;;;;;;;;;5002980;28;20247;-18
2022/05/06 15:05:20;;;;;;;3.92;1.85;;;;;;;;;;5008168;28;20242;-18
2022/05/06 15:07:47;;;;;;;3.97;1.88;;;;;;;;;;5004976;28;20231;-18
2022/05/06 15:10:15;;;;;;;4.72;1.70;;;;;;;;;;5004143;28;20232;-18
2022/05/06 15:12:43;;;;;;;2.75;1.75;;;;;;;;;;5000805;28;20275;-18
2022/05/06 15:15:11;;;;;;;5.28;1.98;;;;;;;;;;5002645;28;20267;-18
2022/05/06 15:17:38;;;;;;;4.65;2.15;;;;;;;;;;5005909;28;20236;-18
2022/05/06 15:20:14;;;;;;;4.53;1.95;;;;;;;;;;4999604;28;20232;-18
2022/05/06 15:22:41;;;;;;;4.13;1.92;;;;;;;;;;5005751;28;20259;-18
2022/05/06 15:25:13;;;;;;;6.63;2.00;;;;;;;;;;5005959;28;20239;-18
2022/05/06 15:27:40;;;;;;;4.18;2.00;;;;;;;;;;5002078;28;20239;-18
2022/05/06 15:30:08;;;;;;;2.85;1.80;;;;;;;;;;5005003;28;20326;-17
2022/05/06 15:32:36;;;;;;;2.80;2.13;;;;;;;;;;5000018;28;20223;-18
2022/05/06 15:35:03;;;;;;;2.40;1.73;;;;;;;;;;5001103;28;20331;-18
2022/05/06 15:37:32;;;;;;;9.82;1.98;;;;;;;;;;4999735;28;20235;-18
2022/05/06 15:39:59;;;;;;;4.78;2.00;;;;;;;;;;5000592;28;20287;-18